sensor_id;sensor_type;location;lat;lon;timestamp;pressure;altitude;pressure_sealevel;temperature;humidity
45621;BME280;31345;51.522;10.702;2023-11-21T00:02:01;98463.59;;;2.72;100.00
45621;BME280;31345;51.522;10.702;2023-11-21T00:04:30;98458.25;;;2.56;100.00
45621;BME280;31345;51.522;10.702;2023-11-21T00:07:03;98462.69;;;2.73;100.00
45621;BME280;31345;51.522;10.702;2023-11-21T00:09:32;98464.75;;;2.65;100.00
45621;BME280;31345;51.522;10.702;2023-11-21T00:12:04;98461.84;;;2.73;100.00
45621;BME280;31345;51.522;10.702;2023-11-21T00:14:40;98461.53;;;2.60;100.00
45621;BME280;31345;51.522;10.702;2023-11-21T00:17:09;98470.00;;;2.63;100.00
45621;BME280;31345;51.522;10.702;2023-11-21T00:19:37;98463.00;;;2.65;100.00
45621;BME280;31345;51.522;10.702;2023-11-21T00:22:04;98466.44;;;2.66;100.00
45621;BME280;31345;51.522;10.702;2023-11-21T00:24:33;98472.34;;;2.68;100.00
45621;BME280;31345;51.522;10.702;2023-11-21T00:27:05;98465.38;;;2.70;100.00
45621;BME280;31345;51.522;10.702;2023-11-21T00:29:33;98470.75;;;2.65;100.00
45621;BME280;31345;51.522;10.702;2023-11-21T00:32:01;98465.88;;;2.59;100.00
45621;BME280;31345;51.522;10.702;2023-11-21T00:34:30;98466.91;;;2.55;100.00
45621;BME280;31345;51.522;10.702;2023-11-21T00:37:03;98464.31;;;2.55;100.00
45621;BME280;31345;51.522;10.702;2023-11-21T00:39:35;98464.19;;;2.58;100.00
45621;BME280;31345;51.522;10.702;2023-11-21T00:42:08;98469.53;;;2.53;100.00
45621;BME280;31345;51.522;10.702;2023-11-21T00:44:37;98467.09;;;2.50;100.00
45621;BME280;31345;51.522;10.702;2023-11-21T00:47:10;98473.03;;;2.52;100.00
45621;BME280;31345;51.522;10.702;2023-11-21T00:49:44;98470.25;;;2.57;100.00
45621;BME280;31345;51.522;10.702;2023-11-21T00:52:11;98466.69;;;2.60;100.00
45621;BME280;31345;51.522;10.702;2023-11-21T00:54:44;98469.34;;;2.58;100.00
45621;BME280;31345;51.522;10.702;2023-11-21T00:57:17;98474.78;;;2.52;100.00
45621;BME280;31345;51.522;10.702;2023-11-21T00:59:49;98470.84;;;2.43;100.00
45621;BME280;31345;51.522;10.702;2023-11-21T01:02:17;98476.00;;;2.43;100.00
45621;BME280;31345;51.522;10.702;2023-11-21T01:04:46;98481.44;;;2.37;100.00
45621;BME280;31345;51.522;10.702;2023-11-21T01:07:15;98482.66;;;2.28;100.00
45621;BME280;31345;51.522;10.702;2023-11-21T01:09:42;98494.22;;;2.18;100.00
45621;BME280;31345;51.522;10.702;2023-11-21T01:12:15;98494.63;;;2.29;100.00
45621;BME280;31345;51.522;10.702;2023-11-21T01:14:44;98503.41;;;2.25;100.00
45621;BME280;31345;51.522;10.702;2023-11-21T01:17:17;98506.19;;;2.20;100.00
45621;BME280;31345;51.522;10.702;2023-11-21T01:19:51;98512.00;;;2.25;100.00
45621;BME280;31345;51.522;10.702;2023-11-21T01:22:19;98511.75;;;2.09;100.00
45621;BME280;31345;51.522;10.702;2023-11-21T01:24:56;98513.00;;;2.00;100.00
45621;BME280;31345;51.522;10.702;2023-11-21T01:27:29;98509.72;;;2.18;100.00
45621;BME280;31345;51.522;10.702;2023-11-21T01:29:57;98515.66;;;2.20;100.00
45621;BME280;31345;51.522;10.702;2023-11-21T01:32:24;98516.34;;;2.23;100.00
45621;BME280;31345;51.522;10.702;2023-11-21T01:34:53;98524.16;;;2.22;100.00
45621;BME280;31345;51.522;10.702;2023-11-21T01:37:21;98521.72;;;2.19;100.00
45621;BME280;31345;51.522;10.702;2023-11-21T01:39:54;98524.25;;;2.20;100.00
45621;BME280;31345;51.522;10.702;2023-11-21T01:42:27;98532.34;;;2.32;100.00
45621;BME280;31345;51.522;10.702;2023-11-21T01:44:55;98537.22;;;2.39;100.00
45621;BME280;31345;51.522;10.702;2023-11-21T01:47:23;98528.03;;;2.32;100.00
45621;BME280;31345;51.522;10.702;2023-11-21T01:49:58;98527.28;;;2.30;100.00
45621;BME280;31345;51.522;10.702;2023-11-21T01:52:26;98531.00;;;2.23;100.00
45621;BME280;31345;51.522;10.702;2023-11-21T01:54:56;98524.94;;;2.24;100.00
45621;BME280;31345;51.522;10.702;2023-11-21T01:57:29;98528.44;;;2.23;100.00
45621;BME280;31345;51.522;10.702;2023-11-21T01:59:58;98539.50;;;2.25;100.00
45621;BME280;31345;51.522;10.702;2023-11-21T02:02:38;98530.03;;;2.25;100.00
45621;BME280;31345;51.522;10.702;2023-11-21T02:05:07;98531.00;;;2.23;100.00
45621;BME280;31345;51.522;10.702;2023-11-21T02:07:40;98531.84;;;2.23;100.00
45621;BME280;31345;51.522;10.702;2023-11-21T02:10:09;98530.53;;;2.13;100.00
45621;BME280;31345;51.522;10.702;2023-11-21T02:12:45;98529.00;;;2.30;100.00
45621;BME280;31345;51.522;10.702;2023-11-21T02:15:18;98529.13;;;2.26;100.00
45621;BME280;31345;51.522;10.702;2023-11-21T02:17:47;98539.34;;;2.30;100.00
45621;BME280;31345;51.522;10.702;2023-11-21T02:20:24;98535.53;;;2.38;100.00
45621;BME280;31345;51.522;10.702;2023-11-21T02:22:58;98542.38;;;2.39;100.00
45621;BME280;31345;51.522;10.702;2023-11-21T02:25:28;98537.97;;;2.42;100.00
45621;BME280;31345;51.522;10.702;2023-11-21T02:27:57;98538.69;;;2.24;100.00
45621;BME280;31345;51.522;10.702;2023-11-21T02:30:25;98544.19;;;2.15;100.00
45621;BME280;31345;51.522;10.702;2023-11-21T02:32:54;98541.50;;;2.18;100.00
45621;BME280;31345;51.522;10.702;2023-11-21T02:35:23;98549.31;;;2.17;100.00
45621;BME280;31345;51.522;10.702;2023-11-21T02:37:58;98541.91;;;2.30;100.00
45621;BME280;31345;51.522;10.702;2023-11-21T02:40:26;98542.88;;;2.27;100.00
45621;BME280;31345;51.522;10.702;2023-11-21T02:42:53;98544.88;;;2.20;100.00
45621;BME280;31345;51.522;10.702;2023-11-21T02:45:21;98544.78;;;2.22;100.00
45621;BME280;31345;51.522;10.702;2023-11-21T02:47:51;98543.19;;;2.19;100.00
45621;BME280;31345;51.522;10.702;2023-11-21T02:50:23;98544.94;;;2.19;100.00
45621;BME280;31345;51.522;10.702;2023-11-21T02:52:51;98537.72;;;2.27;100.00
45621;BME280;31345;51.522;10.702;2023-11-21T02:55:21;98538.53;;;2.27;100.00
45621;BME280;31345;51.522;10.702;2023-11-21T02:57:51;98532.63;;;2.25;100.00
45621;BME280;31345;51.522;10.702;2023-11-21T03:00:18;98536.13;;;2.24;100.00
45621;BME280;31345;51.522;10.702;2023-11-21T03:02:50;98534.41;;;2.23;100.00
45621;BME280;31345;51.522;10.702;2023-11-21T03:05:18;98533.66;;;2.21;100.00
45621;BME280;31345;51.522;10.702;2023-11-21T03:07:51;98525.25;;;2.16;100.00
45621;BME280;31345;51.522;10.702;2023-11-21T03:10:19;98520.94;;;2.17;100.00
45621;BME280;31345;51.522;10.702;2023-11-21T03:12:48;98533.53;;;2.02;100.00
45621;BME280;31345;51.522;10.702;2023-11-21T03:15:16;98532.22;;;1.92;100.00
45621;BME280;31345;51.522;10.702;2023-11-21T03:17:43;98529.34;;;1.99;100.00
45621;BME280;31345;51.522;10.702;2023-11-21T03:20:11;98529.59;;;1.93;100.00
45621;BME280;31345;51.522;10.702;2023-11-21T03:22:40;98539.38;;;2.07;100.00
45621;BME280;31345;51.522;10.702;2023-11-21T03:25:08;98537.53;;;2.09;100.00
45621;BME280;31345;51.522;10.702;2023-11-21T03:27:37;98542.72;;;2.09;100.00
45621;BME280;31345;51.522;10.702;2023-11-21T03:30:09;98547.09;;;2.07;100.00
45621;BME280;31345;51.522;10.702;2023-11-21T03:32:37;98551.78;;;1.97;100.00
45621;BME280;31345;51.522;10.702;2023-11-21T03:35:05;98551.00;;;1.95;100.00
45621;BME280;31345;51.522;10.702;2023-11-21T03:37:32;98555.38;;;1.93;100.00
45621;BME280;31345;51.522;10.702;2023-11-21T03:40:01;98551.03;;;1.94;100.00
45621;BME280;31345;51.522;10.702;2023-11-21T03:42:35;98562.16;;;1.96;100.00
45621;BME280;31345;51.522;10.702;2023-11-21T03:45:09;98560.09;;;2.04;100.00
45621;BME280;31345;51.522;10.702;2023-11-21T03:47:43;98560.91;;;2.06;100.00
45621;BME280;31345;51.522;10.702;2023-11-21T03:50:16;98568.91;;;1.98;100.00
45621;BME280;31345;51.522;10.702;2023-11-21T03:52:49;98564.72;;;1.96;100.00
45621;BME280;31345;51.522;10.702;2023-11-21T03:55:17;98567.03;;;2.02;100.00
45621;BME280;31345;51.522;10.702;2023-11-21T03:57:45;98574.56;;;2.08;100.00
45621;BME280;31345;51.522;10.702;2023-11-21T04:00:15;98574.19;;;2.18;100.00
45621;BME280;31345;51.522;10.702;2023-11-21T04:02:43;98567.13;;;2.23;100.00
45621;BME280;31345;51.522;10.702;2023-11-21T04:05:10;98571.97;;;2.31;100.00
45621;BME280;31345;51.522;10.702;2023-11-21T04:07:38;98572.59;;;2.36;100.00
45621;BME280;31345;51.522;10.702;2023-11-21T04:10:11;98573.28;;;2.41;100.00
45621;BME280;31345;51.522;10.702;2023-11-21T04:12:39;98579.13;;;2.45;100.00
45621;BME280;31345;51.522;10.702;2023-11-21T04:15:08;98581.41;;;2.52;100.00
45621;BME280;31345;51.522;10.702;2023-11-21T04:17:42;98580.41;;;2.57;100.00
45621;BME280;31345;51.522;10.702;2023-11-21T04:20:16;98584.31;;;2.65;100.00
45621;BME280;31345;51.522;10.702;2023-11-21T04:22:49;98581.78;;;2.64;100.00
45621;BME280;31345;51.522;10.702;2023-11-21T04:25:22;98589.34;;;2.69;100.00
45621;BME280;31345;51.522;10.702;2023-11-21T04:27:50;98582.13;;;2.77;100.00
45621;BME280;31345;51.522;10.702;2023-11-21T04:30:18;98595.59;;;2.84;100.00
45621;BME280;31345;51.522;10.702;2023-11-21T04:32:51;98591.13;;;2.89;100.00
45621;BME280;31345;51.522;10.702;2023-11-21T04:35:19;98585.09;;;2.88;100.00
45621;BME280;31345;51.522;10.702;2023-11-21T04:37:47;98595.88;;;2.98;100.00
45621;BME280;31345;51.522;10.702;2023-11-21T04:40:19;98589.84;;;2.98;100.00
45621;BME280;31345;51.522;10.702;2023-11-21T04:42:47;98592.25;;;3.02;100.00
45621;BME280;31345;51.522;10.702;2023-11-21T04:45:19;98592.88;;;3.08;100.00
45621;BME280;31345;51.522;10.702;2023-11-21T04:47:47;98600.31;;;3.15;100.00
45621;BME280;31345;51.522;10.702;2023-11-21T04:50:16;98600.19;;;3.19;100.00
45621;BME280;31345;51.522;10.702;2023-11-21T04:52:44;98602.06;;;3.15;100.00
45621;BME280;31345;51.522;10.702;2023-11-21T04:55:17;98598.56;;;3.16;100.00
45621;BME280;31345;51.522;10.702;2023-11-21T04:57:44;98602.78;;;3.19;100.00
45621;BME280;31345;51.522;10.702;2023-11-21T05:00:18;98603.34;;;3.25;100.00
45621;BME280;31345;51.522;10.702;2023-11-21T05:02:52;98606.69;;;3.27;100.00
45621;BME280;31345;51.522;10.702;2023-11-21T05:05:21;98614.38;;;3.29;100.00
45621;BME280;31345;51.522;10.702;2023-11-21T05:07:54;98612.50;;;3.33;100.00
45621;BME280;31345;51.522;10.702;2023-11-21T05:10:21;98607.91;;;3.39;100.00
45621;BME280;31345;51.522;10.702;2023-11-21T05:12:54;98620.81;;;3.39;100.00
45621;BME280;31345;51.522;10.702;2023-11-21T05:15:23;98618.44;;;3.35;100.00
45621;BME280;31345;51.522;10.702;2023-11-21T05:17:51;98618.38;;;3.36;100.00
45621;BME280;31345;51.522;10.702;2023-11-21T05:20:21;98624.66;;;3.50;100.00
45621;BME280;31345;51.522;10.702;2023-11-21T05:22:49;98622.06;;;3.50;100.00
45621;BME280;31345;51.522;10.702;2023-11-21T05:25:17;98626.06;;;3.57;100.00
45621;BME280;31345;51.522;10.702;2023-11-21T05:27:50;98626.94;;;3.58;100.00
45621;BME280;31345;51.522;10.702;2023-11-21T05:30:17;98628.03;;;3.52;100.00
45621;BME280;31345;51.522;10.702;2023-11-21T05:32:45;98633.69;;;3.60;100.00
45621;BME280;31345;51.522;10.702;2023-11-21T05:35:13;98642.09;;;3.65;100.00
45621;BME280;31345;51.522;10.702;2023-11-21T05:37:43;98643.84;;;3.65;100.00
45621;BME280;31345;51.522;10.702;2023-11-21T05:40:12;98642.16;;;3.64;100.00
45621;BME280;31345;51.522;10.702;2023-11-21T05:42:40;98651.59;;;3.65;100.00
45621;BME280;31345;51.522;10.702;2023-11-21T05:45:08;98651.44;;;3.68;100.00
45621;BME280;31345;51.522;10.702;2023-11-21T05:47:37;98655.44;;;3.75;100.00
45621;BME280;31345;51.522;10.702;2023-11-21T05:50:07;98651.25;;;3.73;100.00
45621;BME280;31345;51.522;10.702;2023-11-21T05:52:36;98659.00;;;3.73;100.00
45621;BME280;31345;51.522;10.702;2023-11-21T05:55:06;98662.88;;;3.83;100.00
45621;BME280;31345;51.522;10.702;2023-11-21T05:57:34;98657.69;;;3.83;100.00
45621;BME280;31345;51.522;10.702;2023-11-21T06:00:04;98673.03;;;3.86;100.00
45621;BME280;31345;51.522;10.702;2023-11-21T06:02:37;98678.09;;;3.89;100.00
45621;BME280;31345;51.522;10.702;2023-11-21T06:05:10;98675.56;;;3.88;100.00
45621;BME280;31345;51.522;10.702;2023-11-21T06:07:38;98670.97;;;3.94;100.00
45621;BME280;31345;51.522;10.702;2023-11-21T06:10:08;98669.16;;;3.97;100.00
45621;BME280;31345;51.522;10.702;2023-11-21T06:12:42;98680.13;;;4.02;100.00
45621;BME280;31345;51.522;10.702;2023-11-21T06:15:11;98684.34;;;4.04;100.00
45621;BME280;31345;51.522;10.702;2023-11-21T06:17:40;98677.25;;;4.08;100.00
45621;BME280;31345;51.522;10.702;2023-11-21T06:20:09;98679.66;;;4.13;100.00
45621;BME280;31345;51.522;10.702;2023-11-21T06:22:41;98683.97;;;4.12;100.00
45621;BME280;31345;51.522;10.702;2023-11-21T06:25:11;98691.38;;;4.20;100.00
45621;BME280;31345;51.522;10.702;2023-11-21T06:27:44;98685.38;;;4.19;100.00
45621;BME280;31345;51.522;10.702;2023-11-21T06:30:14;98690.31;;;4.24;100.00
45621;BME280;31345;51.522;10.702;2023-11-21T06:32:42;98692.56;;;4.32;100.00
45621;BME280;31345;51.522;10.702;2023-11-21T06:35:11;98694.16;;;4.34;100.00
45621;BME280;31345;51.522;10.702;2023-11-21T06:37:39;98709.63;;;4.36;100.00
45621;BME280;31345;51.522;10.702;2023-11-21T06:40:07;98704.25;;;4.41;100.00
45621;BME280;31345;51.522;10.702;2023-11-21T06:42:42;98704.06;;;4.44;100.00
45621;BME280;31345;51.522;10.702;2023-11-21T06:45:16;98703.25;;;4.43;100.00
45621;BME280;31345;51.522;10.702;2023-11-21T06:47:44;98710.50;;;4.54;100.00
45621;BME280;31345;51.522;10.702;2023-11-21T06:50:12;98712.56;;;4.47;100.00
45621;BME280;31345;51.522;10.702;2023-11-21T06:52:39;98711.38;;;4.55;100.00
45621;BME280;31345;51.522;10.702;2023-11-21T06:55:07;98714.63;;;4.58;100.00
45621;BME280;31345;51.522;10.702;2023-11-21T06:57:40;98725.47;;;4.67;100.00
45621;BME280;31345;51.522;10.702;2023-11-21T07:00:11;98714.97;;;4.70;100.00
45621;BME280;31345;51.522;10.702;2023-11-21T07:02:39;98723.34;;;4.75;100.00
45621;BME280;31345;51.522;10.702;2023-11-21T07:05:11;98721.69;;;4.74;100.00
45621;BME280;31345;51.522;10.702;2023-11-21T07:07:40;98726.66;;;4.79;100.00
45621;BME280;31345;51.522;10.702;2023-11-21T07:10:13;98731.59;;;4.83;100.00
45621;BME280;31345;51.522;10.702;2023-11-21T07:12:46;98733.13;;;4.88;100.00
45621;BME280;31345;51.522;10.702;2023-11-21T07:15:15;98738.38;;;4.86;100.00
45621;BME280;31345;51.522;10.702;2023-11-21T07:17:47;98750.75;;;4.98;100.00
45621;BME280;31345;51.522;10.702;2023-11-21T07:20:20;98753.72;;;5.08;100.00
45621;BME280;31345;51.522;10.702;2023-11-21T07:22:47;98756.22;;;5.10;100.00
45621;BME280;31345;51.522;10.702;2023-11-21T07:25:15;98762.19;;;5.12;100.00
45621;BME280;31345;51.522;10.702;2023-11-21T07:27:42;98758.59;;;5.15;100.00
45621;BME280;31345;51.522;10.702;2023-11-21T07:30:16;98754.47;;;5.28;100.00
45621;BME280;31345;51.522;10.702;2023-11-21T07:32:44;98767.75;;;5.40;100.00
45621;BME280;31345;51.522;10.702;2023-11-21T07:35:19;98763.41;;;5.40;100.00
45621;BME280;31345;51.522;10.702;2023-11-21T07:37:46;98770.19;;;5.43;100.00
45621;BME280;31345;51.522;10.702;2023-11-21T07:40:15;98772.56;;;5.47;100.00
45621;BME280;31345;51.522;10.702;2023-11-21T07:42:48;98779.34;;;5.50;100.00
45621;BME280;31345;51.522;10.702;2023-11-21T07:45:23;98774.03;;;5.53;100.00
45621;BME280;31345;51.522;10.702;2023-11-21T07:47:55;98775.78;;;5.53;100.00
45621;BME280;31345;51.522;10.702;2023-11-21T07:50:28;98774.69;;;5.57;100.00
45621;BME280;31345;51.522;10.702;2023-11-21T07:52:55;98778.59;;;5.66;100.00
45621;BME280;31345;51.522;10.702;2023-11-21T07:55:23;98783.44;;;5.72;100.00
45621;BME280;31345;51.522;10.702;2023-11-21T07:57:51;98789.63;;;5.69;100.00
45621;BME280;31345;51.522;10.702;2023-11-21T08:00:25;98794.91;;;5.68;100.00
45621;BME280;31345;51.522;10.702;2023-11-21T08:02:56;98797.19;;;5.74;100.00
45621;BME280;31345;51.522;10.702;2023-11-21T08:05:23;98792.69;;;5.78;100.00
45621;BME280;31345;51.522;10.702;2023-11-21T08:07:56;98798.63;;;5.80;100.00
45621;BME280;31345;51.522;10.702;2023-11-21T08:10:24;98802.22;;;5.77;100.00
45621;BME280;31345;51.522;10.702;2023-11-21T08:12:57;98797.03;;;5.77;100.00
45621;BME280;31345;51.522;10.702;2023-11-21T08:15:28;98800.47;;;5.78;100.00
45621;BME280;31345;51.522;10.702;2023-11-21T08:18:00;98801.91;;;5.83;100.00
45621;BME280;31345;51.522;10.702;2023-11-21T08:20:33;98805.09;;;5.88;100.00
45621;BME280;31345;51.522;10.702;2023-11-21T08:23:02;98799.81;;;5.90;100.00
45621;BME280;31345;51.522;10.702;2023-11-21T08:25:32;98806.72;;;5.91;100.00
45621;BME280;31345;51.522;10.702;2023-11-21T08:28:05;98810.84;;;5.95;100.00
45621;BME280;31345;51.522;10.702;2023-11-21T08:30:40;98809.41;;;6.06;100.00
45621;BME280;31345;51.522;10.702;2023-11-21T08:33:08;98812.78;;;6.08;100.00
45621;BME280;31345;51.522;10.702;2023-11-21T08:35:37;98816.97;;;6.10;100.00
45621;BME280;31345;51.522;10.702;2023-11-21T08:38:10;98816.97;;;6.10;100.00
45621;BME280;31345;51.522;10.702;2023-11-21T08:40:38;98817.66;;;6.14;100.00
45621;BME280;31345;51.522;10.702;2023-11-21T08:43:06;98817.97;;;6.08;100.00
45621;BME280;31345;51.522;10.702;2023-11-21T08:45:34;98821.94;;;6.15;100.00
45621;BME280;31345;51.522;10.702;2023-11-21T08:48:08;98822.44;;;6.22;100.00
45621;BME280;31345;51.522;10.702;2023-11-21T08:50:42;98828.47;;;6.22;100.00
45621;BME280;31345;51.522;10.702;2023-11-21T08:53:10;98834.84;;;6.17;100.00
45621;BME280;31345;51.522;10.702;2023-11-21T08:55:38;98837.25;;;6.20;100.00
45621;BME280;31345;51.522;10.702;2023-11-21T08:58:06;98839.47;;;6.27;100.00
45621;BME280;31345;51.522;10.702;2023-11-21T09:00:33;98837.69;;;6.28;100.00
45621;BME280;31345;51.522;10.702;2023-11-21T09:03:01;98841.28;;;6.25;100.00
45621;BME280;31345;51.522;10.702;2023-11-21T09:05:31;98847.81;;;6.17;100.00
45621;BME280;31345;51.522;10.702;2023-11-21T09:07:58;98854.53;;;6.21;100.00
45621;BME280;31345;51.522;10.702;2023-11-21T09:10:26;98851.16;;;6.19;100.00
45621;BME280;31345;51.522;10.702;2023-11-21T09:12:54;98851.38;;;6.14;100.00
45621;BME280;31345;51.522;10.702;2023-11-21T09:15:27;98859.47;;;6.25;100.00
45621;BME280;31345;51.522;10.702;2023-11-21T09:17:54;98862.00;;;6.27;100.00
45621;BME280;31345;51.522;10.702;2023-11-21T09:20:27;98864.66;;;6.25;100.00
45621;BME280;31345;51.522;10.702;2023-11-21T09:23:01;98860.53;;;6.21;100.00
45621;BME280;31345;51.522;10.702;2023-11-21T09:25:34;98862.47;;;6.18;100.00
45621;BME280;31345;51.522;10.702;2023-11-21T09:28:06;98868.94;;;6.26;100.00
45621;BME280;31345;51.522;10.702;2023-11-21T09:30:34;98869.53;;;6.32;100.00
45621;BME280;31345;51.522;10.702;2023-11-21T09:33:03;98871.63;;;6.25;100.00
45621;BME280;31345;51.522;10.702;2023-11-21T09:35:39;98875.47;;;6.34;100.00
45621;BME280;31345;51.522;10.702;2023-11-21T09:38:08;98873.41;;;6.40;100.00
45621;BME280;31345;51.522;10.702;2023-11-21T09:40:37;98873.16;;;6.45;100.00
45621;BME280;31345;51.522;10.702;2023-11-21T09:43:15;98882.88;;;6.42;100.00
45621;BME280;31345;51.522;10.702;2023-11-21T09:45:54;98869.19;;;6.56;100.00
45621;BME280;31345;51.522;10.702;2023-11-21T09:48:30;98877.63;;;6.59;100.00
45621;BME280;31345;51.522;10.702;2023-11-21T09:51:04;98880.94;;;6.63;100.00
45621;BME280;31345;51.522;10.702;2023-11-21T09:53:34;98885.50;;;6.58;100.00
45621;BME280;31345;51.522;10.702;2023-11-21T09:56:03;98883.75;;;6.58;100.00
45621;BME280;31345;51.522;10.702;2023-11-21T09:58:36;98887.63;;;6.67;100.00
45621;BME280;31345;51.522;10.702;2023-11-21T10:01:10;98884.69;;;6.73;100.00
45621;BME280;31345;51.522;10.702;2023-11-21T10:03:44;98884.69;;;6.73;100.00
45621;BME280;31345;51.522;10.702;2023-11-21T10:06:17;98889.91;;;6.73;100.00
45621;BME280;31345;51.522;10.702;2023-11-21T10:08:52;98894.16;;;6.74;100.00
45621;BME280;31345;51.522;10.702;2023-11-21T10:11:24;98892.25;;;6.78;100.00
45621;BME280;31345;51.522;10.702;2023-11-21T10:13:52;98897.22;;;6.83;100.00
45621;BME280;31345;51.522;10.702;2023-11-21T10:16:26;98898.03;;;6.83;100.00
45621;BME280;31345;51.522;10.702;2023-11-21T10:18:55;98890.00;;;6.88;100.00
45621;BME280;31345;51.522;10.702;2023-11-21T10:21:25;98893.06;;;6.78;100.00
45621;BME280;31345;51.522;10.702;2023-11-21T10:23:55;98892.75;;;6.85;100.00
45621;BME280;31345;51.522;10.702;2023-11-21T10:26:23;98890.94;;;6.87;100.00
45621;BME280;31345;51.522;10.702;2023-11-21T10:28:56;98896.88;;;6.89;100.00
45621;BME280;31345;51.522;10.702;2023-11-21T10:31:24;98902.66;;;6.94;100.00
45621;BME280;31345;51.522;10.702;2023-11-21T10:33:54;98913.97;;;6.93;100.00
45621;BME280;31345;51.522;10.702;2023-11-21T10:36:28;98917.44;;;6.94;100.00
45621;BME280;31345;51.522;10.702;2023-11-21T10:39:02;98914.41;;;7.01;100.00
45621;BME280;31345;51.522;10.702;2023-11-21T10:41:35;98922.91;;;7.05;100.00
45621;BME280;31345;51.522;10.702;2023-11-21T10:44:03;98926.22;;;7.07;100.00
45621;BME280;31345;51.522;10.702;2023-11-21T10:46:33;98927.91;;;7.08;100.00
45621;BME280;31345;51.522;10.702;2023-11-21T10:49:06;98928.00;;;7.23;100.00
45621;BME280;31345;51.522;10.702;2023-11-21T10:51:43;98934.13;;;7.38;100.00
45621;BME280;31345;51.522;10.702;2023-11-21T10:54:12;98930.41;;;7.42;100.00
45621;BME280;31345;51.522;10.702;2023-11-21T10:56:46;98932.19;;;7.41;100.00
45621;BME280;31345;51.522;10.702;2023-11-21T10:59:17;98929.75;;;7.38;100.00
45621;BME280;31345;51.522;10.702;2023-11-21T11:01:47;98940.91;;;7.40;100.00
45621;BME280;31345;51.522;10.702;2023-11-21T11:04:18;98935.97;;;7.36;100.00
45621;BME280;31345;51.522;10.702;2023-11-21T11:06:49;98938.97;;;7.28;100.00
45621;BME280;31345;51.522;10.702;2023-11-21T11:09:20;98941.50;;;7.29;100.00
45621;BME280;31345;51.522;10.702;2023-11-21T11:11:48;98938.16;;;7.27;100.00
45621;BME280;31345;51.522;10.702;2023-11-21T11:14:15;98944.44;;;7.23;100.00
45621;BME280;31345;51.522;10.702;2023-11-21T11:16:45;98941.00;;;7.23;100.00
45621;BME280;31345;51.522;10.702;2023-11-21T11:19:18;98946.84;;;7.26;100.00
45621;BME280;31345;51.522;10.702;2023-11-21T11:22:00;98946.84;;;7.26;100.00
45621;BME280;31345;51.522;10.702;2023-11-21T11:24:58;98948.47;;;7.29;100.00
45621;BME280;31345;51.522;10.702;2023-11-21T11:27:43;98957.38;;;7.25;100.00
45621;BME280;31345;51.522;10.702;2023-11-21T11:30:28;98959.38;;;7.36;100.00
45621;BME280;31345;51.522;10.702;2023-11-21T11:36:05;98960.72;;;7.43;100.00
45621;BME280;31345;51.522;10.702;2023-11-21T11:38:39;98966.91;;;7.40;100.00
45621;BME280;31345;51.522;10.702;2023-11-21T11:41:13;98967.19;;;7.36;100.00
45621;BME280;31345;51.522;10.702;2023-11-21T11:43:45;98975.88;;;7.35;100.00
45621;BME280;31345;51.522;10.702;2023-11-21T11:46:18;98971.34;;;7.22;100.00
45621;BME280;31345;51.522;10.702;2023-11-21T11:48:47;98978.06;;;7.10;100.00
45621;BME280;31345;51.522;10.702;2023-11-21T11:51:16;98973.25;;;7.02;100.00
45621;BME280;31345;51.522;10.702;2023-11-21T11:53:46;98978.97;;;6.93;100.00
45621;BME280;31345;51.522;10.702;2023-11-21T11:56:26;98979.09;;;6.90;100.00
45621;BME280;31345;51.522;10.702;2023-11-21T11:58:55;98985.25;;;6.89;100.00
45621;BME280;31345;51.522;10.702;2023-11-21T12:01:29;98993.03;;;6.89;100.00
45621;BME280;31345;51.522;10.702;2023-11-21T12:04:24;99003.06;;;6.79;100.00
45621;BME280;31345;51.522;10.702;2023-11-21T12:07:00;98993.75;;;6.75;100.00
45621;BME280;31345;51.522;10.702;2023-11-21T12:09:34;98996.19;;;6.78;100.00
45621;BME280;31345;51.522;10.702;2023-11-21T12:12:03;99003.84;;;6.81;100.00
45621;BME280;31345;51.522;10.702;2023-11-21T12:14:37;99015.13;;;6.80;100.00
45621;BME280;31345;51.522;10.702;2023-11-21T12:17:10;99017.66;;;6.82;100.00
45621;BME280;31345;51.522;10.702;2023-11-21T12:19:42;99019.00;;;6.73;100.00
45621;BME280;31345;51.522;10.702;2023-11-21T12:22:10;99030.44;;;6.69;100.00
45621;BME280;31345;51.522;10.702;2023-11-21T12:24:38;99029.53;;;6.70;100.00
45621;BME280;31345;51.522;10.702;2023-11-21T12:27:12;99033.28;;;6.64;100.00
45621;BME280;31345;51.522;10.702;2023-11-21T12:29:45;99036.03;;;6.43;100.00
45621;BME280;31345;51.522;10.702;2023-11-21T12:32:13;99036.94;;;6.42;100.00
45621;BME280;31345;51.522;10.702;2023-11-21T12:34:41;99040.97;;;6.48;100.00
45621;BME280;31345;51.522;10.702;2023-11-21T12:37:13;99037.38;;;6.50;100.00
45621;BME280;31345;51.522;10.702;2023-11-21T12:39:40;99034.25;;;6.44;100.00
45621;BME280;31345;51.522;10.702;2023-11-21T12:42:15;99040.84;;;6.51;100.00
45621;BME280;31345;51.522;10.702;2023-11-21T12:44:47;99041.84;;;6.48;100.00
45621;BME280;31345;51.522;10.702;2023-11-21T12:47:17;99043.50;;;6.49;100.00
45621;BME280;31345;51.522;10.702;2023-11-21T12:49:44;99054.81;;;6.48;100.00
45621;BME280;31345;51.522;10.702;2023-11-21T12:52:17;99060.56;;;6.37;100.00
45621;BME280;31345;51.522;10.702;2023-11-21T12:54:45;99060.97;;;6.28;100.00
45621;BME280;31345;51.522;10.702;2023-11-21T12:57:16;99070.41;;;6.31;100.00
45621;BME280;31345;51.522;10.702;2023-11-21T12:59:45;99072.38;;;6.25;100.00
45621;BME280;31345;51.522;10.702;2023-11-21T13:02:18;99071.69;;;6.22;100.00
45621;BME280;31345;51.522;10.702;2023-11-21T13:04:51;99065.78;;;6.18;100.00
45621;BME280;31345;51.522;10.702;2023-11-21T13:07:20;99067.69;;;6.14;100.00
45621;BME280;31345;51.522;10.702;2023-11-21T13:09:52;99062.97;;;6.23;100.00
45621;BME280;31345;51.522;10.702;2023-11-21T13:12:25;99056.94;;;6.22;100.00